• Join FlightAware (Why Join?)
  • Login
  • US Flag 
12:51AM EDT


 

Airport Tracker/Info


-or-


 

Live Flight TrackerFlight Track Log ✈ FIN666 ✈ 06-Feb-2014 ✈ EKCH / CPH - EFHK / HEL

Flight Track Log - Related Links

Times and Time Zones

All times are in EST time to prevent confusion due to time zone crossing. See the FIN666 flight status page for this flight to view local times or setup timezone preferences in your user account.

Time Position Orientation Groundspeed Altitude Reporting Facility
EST Latitude Longitude Course Direction KTS MPH feet Rate Location/Type
07:22AM 55.8389 13.1126 49° Northeast  Level Estimated
07:23AM 55.9122 13.2660 50° Northeast  Level Estimated
07:24AM 55.9853 13.4199 50° Northeast  Level Estimated
07:25AM 56.0582 13.5744 50° Northeast  Level Estimated
07:26AM 56.1319 13.7317 50° Northeast  Level Estimated
07:27AM 56.2054 13.8897 50° Northeast  Level Estimated
07:28AM 56.2788 14.0482 50° Northeast  Level Estimated
07:29AM 56.3519 14.2074 50° Northeast  Level Estimated
07:30AM 56.4249 14.3671 50° Northeast  Level Estimated
07:31AM 56.4976 14.5275 51° Northeast  Level Estimated
07:32AM 56.5701 14.6885 51° Northeast  Level Estimated
07:33AM 56.6424 14.8501 51° Northeast  Level Estimated
07:34AM 56.7145 15.0123 51° Northeast  Level Estimated
07:35AM 56.7864 15.1752 51° Northeast  Level Estimated
07:36AM 56.8581 15.3386 51° Northeast  Level Estimated
07:37AM 56.9295 15.5027 51° Northeast  Level Estimated
07:38AM 57.0008 15.6675 52° Northeast  Level Estimated
07:39AM 57.0718 15.8328 52° Northeast  Level Estimated
07:40AM 57.1426 15.9988 52° Northeast  Level Estimated
07:41AM 57.2132 16.1654 52° Northeast  Level Estimated
07:42AM 57.2836 16.3327 52° Northeast  Level Estimated
07:43AM 57.3537 16.5006 52° Northeast  Level Estimated
07:44AM 57.4236 16.6691 52° Northeast  Level Estimated
07:45AM 57.4933 16.8383 52° Northeast  Level Estimated
07:46AM 57.5628 17.0082 53° Northeast  Level Estimated
07:47AM 57.6320 17.1786 53° Northeast  Level Estimated
07:48AM 57.7010 17.3498 53° Northeast  Level Estimated
07:49AM 57.7698 17.5216 53° Northeast  Level Estimated
07:50AM 57.8384 17.6940 53° Northeast  Level Estimated
07:51AM 57.9067 17.8671 53° Northeast  Level Estimated
07:52AM 57.9747 18.0408 53° Northeast  Level Estimated
07:53AM 58.0426 18.2153 54° Northeast  Level Estimated
07:54AM 58.1102 18.3903 54° Northeast  Level Estimated
07:55AM 58.1775 18.5661 54° Northeast  Level Estimated
07:56AM 58.2446 18.7425 54° Northeast  Level Estimated
07:57AM 58.3115 18.9196 54° Northeast  Level Estimated
07:58AM 58.3781 19.0973 54° Northeast  Level Estimated
07:59AM 58.4445 19.2757 55° Northeast  Level Estimated
08:00AM 58.5106 19.4548 55° Northeast  Level Estimated
08:01AM 58.5765 19.6346 55° Northeast  Level Estimated
08:02AM 58.6421 19.8150 55° Northeast  Level Estimated
08:03AM 58.7075 19.9961 55° Northeast  Level Estimated
08:04AM 58.7726 20.1779 55° Northeast  Level Estimated
08:05AM 58.8375 20.3604 55° Northeast  Level Estimated
08:06AM 58.9021 20.5436 56° Northeast  Level Estimated
08:07AM 58.9664 20.7274 56° Northeast  Level Estimated
08:08AM 59.0305 20.9119 56° Northeast  Level Estimated
08:09AM 59.0943 21.0972 56° Northeast  Level Estimated
08:10AM 59.1578 21.2831 56° Northeast  Level Estimated
08:11AM 59.2211 21.4697 56° Northeast  Level Estimated
08:12AM 59.2841 21.6570 57° Northeast  Level Estimated
08:13AM 59.3469 21.8449 57° Northeast  Level Estimated
08:14AM 59.4094 22.0336 57° Northeast  Level Estimated
08:15AM 59.4707 22.2203 57° Northeast  Level Estimated
08:16AM 59.5318 22.4077 57° Northeast  Level Estimated
08:17AM 59.5925 22.5958 57° Northeast  Level Estimated
08:18AM 59.6531 22.7845 58° Northeast  Level Estimated
08:19AM 59.7133 22.9739 58° Northeast  Level Estimated
08:20AM 59.7733 23.1640 58° Northeast  Level Estimated
08:21AM 59.8330 23.3548 58° Northeast  Level Estimated
08:22AM 59.8924 23.5463 58° Northeast  Level Estimated
08:23AM 59.9515 23.7384 58° Northeast  Level Estimated
08:24AM 60.0104 23.9313 59° Northeast  Level Estimated
08:25AM 60.0690 24.1248 59° Northeast  Level Estimated
08:26AM 60.1273 24.3190 59° Northeast  Level Estimated
08:27AM 60.1853 24.5139 59° Northeast  Level Estimated
08:28AM 60.2430 24.7095 59° Northeast  Level Estimated
08:29AM 60.3005 24.9058 59° Northeast  Level Estimated
08:30AM 60.3172 24.9633 60° Northeast  Level Estimated
08:31AM 60.3172 24.9633 37° Northeast  Level Estimated
08:32AM 60.3172 24.9633 37° Northeast  Level Estimated
08:33AM 60.3172 24.9633 37° Northeast  Level Estimated
08:34AM 60.3172 24.9633 37° Northeast  Level Estimated
08:35AM 60.3172 24.9633 37° Northeast  Level Estimated
08:36AM 60.3172 24.9633 37° Northeast  Level Estimated
08:37AM 60.3172 24.9633 37° Northeast  Level Estimated
08:38AM 60.3172 24.9633 37° Northeast  Level Estimated
08:39AM 60.3172 24.9633 37° Northeast  Level Estimated
08:40AM 60.3172 24.9633 37° Northeast  Level Estimated